sensor_id;sensor_type;location;lat;lon;timestamp;temperature;humidity
46055;DHT22;31788;6.954;-71.872;2023-03-23T11:06:10;25.10;93.70
46055;DHT22;31788;6.954;-71.872;2023-03-23T11:11:28;25.20;93.80
46055;DHT22;31788;6.954;-71.872;2023-03-23T11:14:01;25.30;93.50
46055;DHT22;31788;6.954;-71.872;2023-03-23T11:16:31;25.50;93.20
46055;DHT22;31788;6.954;-71.872;2023-03-23T11:19:13;25.60;93.30
46055;DHT22;31788;6.954;-71.872;2023-03-23T11:21:45;25.70;93.60
46055;DHT22;31788;6.954;-71.872;2023-03-23T11:24:12;25.70;93.30
46055;DHT22;31788;6.954;-71.872;2023-03-23T11:26:39;25.80;93.00
46055;DHT22;31788;6.954;-71.872;2023-03-23T11:29:18;25.90;92.90
46055;DHT22;31788;6.954;-71.872;2023-03-23T11:32:02;25.90;93.30
46055;DHT22;31788;6.954;-71.872;2023-03-23T11:34:44;25.90;93.30
46055;DHT22;31788;6.954;-71.872;2023-03-23T11:37:24;26.00;93.10
46055;DHT22;31788;6.954;-71.872;2023-03-23T11:40:19;26.00;92.70
46055;DHT22;31788;6.954;-71.872;2023-03-23T11:50:59;26.20;91.90
46055;DHT22;31788;6.954;-71.872;2023-03-23T11:53:48;26.30;92.40
46055;DHT22;31788;6.954;-71.872;2023-03-23T11:56:41;26.30;92.30
46055;DHT22;31788;6.954;-71.872;2023-03-23T11:59:19;26.30;92.10
46055;DHT22;31788;6.954;-71.872;2023-03-23T12:01:57;26.40;92.20
46055;DHT22;31788;6.954;-71.872;2023-03-23T12:16:00;26.40;92.40
46055;DHT22;31788;6.954;-71.872;2023-03-23T12:18:38;26.40;92.30
46055;DHT22;31788;6.954;-71.872;2023-03-23T12:26:56;26.50;92.80
46055;DHT22;31788;6.954;-71.872;2023-03-23T12:35:28;26.50;92.30
46055;DHT22;31788;6.954;-71.872;2023-03-23T12:46:35;26.70;92.00
46055;DHT22;31788;6.954;-71.872;2023-03-23T12:51:51;26.80;91.80
46055;DHT22;31788;6.954;-71.872;2023-03-23T13:02:32;27.10;91.10
46055;DHT22;31788;6.954;-71.872;2023-03-23T13:05:11;27.10;91.00
46055;DHT22;31788;6.954;-71.872;2023-03-23T13:07:47;27.20;90.80
46055;DHT22;31788;6.954;-71.872;2023-03-23T13:10:26;27.20;90.80
46055;DHT22;31788;6.954;-71.872;2023-03-23T13:12:54;27.30;90.80
46055;DHT22;31788;6.954;-71.872;2023-03-23T13:23:39;27.40;90.80
46055;DHT22;31788;6.954;-71.872;2023-03-23T13:26:18;27.40;90.90
46055;DHT22;31788;6.954;-71.872;2023-03-23T13:31:42;27.40;91.00
46055;DHT22;31788;6.954;-71.872;2023-03-23T13:34:26;27.40;90.80
46055;DHT22;31788;6.954;-71.872;2023-03-23T13:37:00;27.40;90.80
46055;DHT22;31788;6.954;-71.872;2023-03-23T13:39:34;27.40;90.80
46055;DHT22;31788;6.954;-71.872;2023-03-23T13:49:59;27.40;91.00
46055;DHT22;31788;6.954;-71.872;2023-03-23T13:52:38;27.50;91.10
46055;DHT22;31788;6.954;-71.872;2023-03-23T13:57:57;27.40;91.10
46055;DHT22;31788;6.954;-71.872;2023-03-23T14:06:02;27.50;91.00
46055;DHT22;31788;6.954;-71.872;2023-03-23T14:08:36;27.50;91.20
46055;DHT22;31788;6.954;-71.872;2023-03-23T14:11:13;27.50;91.10
46055;DHT22;31788;6.954;-71.872;2023-03-23T14:18:57;27.50;91.50
46055;DHT22;31788;6.954;-71.872;2023-03-23T14:24:10;27.50;91.10
46055;DHT22;31788;6.954;-71.872;2023-03-23T14:26:39;27.50;91.10
46055;DHT22;31788;6.954;-71.872;2023-03-23T14:29:06;27.50;91.20
46055;DHT22;31788;6.954;-71.872;2023-03-23T14:31:35;27.50;91.10
46055;DHT22;31788;6.954;-71.872;2023-03-23T14:34:05;27.60;91.40
46055;DHT22;31788;6.954;-71.872;2023-03-23T14:36:37;27.50;91.10
46055;DHT22;31788;6.954;-71.872;2023-03-23T14:41:35;27.60;91.20
46055;DHT22;31788;6.954;-71.872;2023-03-23T14:44:03;27.50;91.30
46055;DHT22;31788;6.954;-71.872;2023-03-23T14:46:33;27.60;91.40
46055;DHT22;31788;6.954;-71.872;2023-03-23T14:49:02;27.60;91.40
46055;DHT22;31788;6.954;-71.872;2023-03-23T14:51:30;27.60;91.60
46055;DHT22;31788;6.954;-71.872;2023-03-23T14:53:59;27.50;91.70
46055;DHT22;31788;6.954;-71.872;2023-03-23T14:56:36;27.50;91.60
46055;DHT22;31788;6.954;-71.872;2023-03-23T14:59:05;27.50;91.70
46055;DHT22;31788;6.954;-71.872;2023-03-23T15:01:36;27.60;91.50
46055;DHT22;31788;6.954;-71.872;2023-03-23T15:04:30;27.60;91.60
46055;DHT22;31788;6.954;-71.872;2023-03-23T15:07:03;27.60;91.50
46055;DHT22;31788;6.954;-71.872;2023-03-23T15:09:31;27.50;91.60
46055;DHT22;31788;6.954;-71.872;2023-03-23T15:12:03;27.50;91.80
46055;DHT22;31788;6.954;-71.872;2023-03-23T15:14:57;27.50;91.60
46055;DHT22;31788;6.954;-71.872;2023-03-23T15:17:30;27.50;91.50
46055;DHT22;31788;6.954;-71.872;2023-03-23T15:20:06;27.50;91.80
46055;DHT22;31788;6.954;-71.872;2023-03-23T15:22:33;27.50;91.90
46055;DHT22;31788;6.954;-71.872;2023-03-23T15:25:24;27.50;91.60
46055;DHT22;31788;6.954;-71.872;2023-03-23T15:28:48;27.50;91.70
46055;DHT22;31788;6.954;-71.872;2023-03-23T15:31:03;27.40;92.10
46055;DHT22;31788;6.954;-71.872;2023-03-23T15:33:38;27.40;91.70
46055;DHT22;31788;6.954;-71.872;2023-03-23T15:36:15;27.40;92.20
46055;DHT22;31788;6.954;-71.872;2023-03-23T15:38:46;27.40;92.60
46055;DHT22;31788;6.954;-71.872;2023-03-23T15:41:25;27.40;92.80
46055;DHT22;31788;6.954;-71.872;2023-03-23T15:43:58;27.40;93.30
46055;DHT22;31788;6.954;-71.872;2023-03-23T15:46:26;27.30;93.40
46055;DHT22;31788;6.954;-71.872;2023-03-23T15:49:07;27.30;93.80
46055;DHT22;31788;6.954;-71.872;2023-03-23T15:51:35;27.30;94.30
46055;DHT22;31788;6.954;-71.872;2023-03-23T15:54:03;27.30;94.50
46055;DHT22;31788;6.954;-71.872;2023-03-23T15:56:31;27.30;94.70
46055;DHT22;31788;6.954;-71.872;2023-03-23T15:58:58;27.20;94.80
46055;DHT22;31788;6.954;-71.872;2023-03-23T16:01:29;27.20;94.60
46055;DHT22;31788;6.954;-71.872;2023-03-23T16:06:30;27.20;94.70
46055;DHT22;31788;6.954;-71.872;2023-03-23T16:08:57;27.20;94.90
46055;DHT22;31788;6.954;-71.872;2023-03-23T16:11:27;27.20;94.60
46055;DHT22;31788;6.954;-71.872;2023-03-23T16:13:54;27.20;94.00
46055;DHT22;31788;6.954;-71.872;2023-03-23T16:16:45;27.20;94.30
46055;DHT22;31788;6.954;-71.872;2023-03-23T16:19:14;27.20;93.80
46055;DHT22;31788;6.954;-71.872;2023-03-23T16:21:41;27.10;93.70
46055;DHT22;31788;6.954;-71.872;2023-03-23T16:24:09;27.20;93.80
46055;DHT22;31788;6.954;-71.872;2023-03-23T16:26:36;27.20;94.10
46055;DHT22;31788;6.954;-71.872;2023-03-23T16:29:13;27.20;94.30
46055;DHT22;31788;6.954;-71.872;2023-03-23T16:31:40;27.20;94.30
46055;DHT22;31788;6.954;-71.872;2023-03-23T16:34:07;27.20;94.70
46055;DHT22;31788;6.954;-71.872;2023-03-23T16:36:34;27.30;94.50
46055;DHT22;31788;6.954;-71.872;2023-03-23T16:39:01;27.30;94.50
46055;DHT22;31788;6.954;-71.872;2023-03-23T16:41:28;27.30;95.00
46055;DHT22;31788;6.954;-71.872;2023-03-23T16:43:55;27.30;95.10
46055;DHT22;31788;6.954;-71.872;2023-03-23T16:46:24;27.30;95.30
46055;DHT22;31788;6.954;-71.872;2023-03-23T16:48:50;27.30;94.90
46055;DHT22;31788;6.954;-71.872;2023-03-23T16:51:17;27.40;94.70
46055;DHT22;31788;6.954;-71.872;2023-03-23T16:53:44;27.40;94.50
46055;DHT22;31788;6.954;-71.872;2023-03-23T16:56:10;27.40;94.70
46055;DHT22;31788;6.954;-71.872;2023-03-23T16:58:37;27.40;94.70
46055;DHT22;31788;6.954;-71.872;2023-03-23T17:01:04;27.40;94.50
46055;DHT22;31788;6.954;-71.872;2023-03-23T17:03:31;27.40;94.50
46055;DHT22;31788;6.954;-71.872;2023-03-23T17:05:59;27.50;94.40
46055;DHT22;31788;6.954;-71.872;2023-03-23T17:08:26;27.50;94.70
46055;DHT22;31788;6.954;-71.872;2023-03-23T17:10:53;27.50;94.70
46055;DHT22;31788;6.954;-71.872;2023-03-23T17:13:20;27.60;94.40
46055;DHT22;31788;6.954;-71.872;2023-03-23T17:15:51;27.50;94.20
46055;DHT22;31788;6.954;-71.872;2023-03-23T17:18:18;27.50;94.50
46055;DHT22;31788;6.954;-71.872;2023-03-23T17:20:45;27.60;94.50
46055;DHT22;31788;6.954;-71.872;2023-03-23T17:23:13;27.60;94.60
46055;DHT22;31788;6.954;-71.872;2023-03-23T17:25:39;27.60;95.00
46055;DHT22;31788;6.954;-71.872;2023-03-23T17:28:06;27.60;94.70
46055;DHT22;31788;6.954;-71.872;2023-03-23T17:30:33;27.70;94.40
46055;DHT22;31788;6.954;-71.872;2023-03-23T17:33:00;27.70;94.50
46055;DHT22;31788;6.954;-71.872;2023-03-23T17:35:27;27.70;94.60
46055;DHT22;31788;6.954;-71.872;2023-03-23T17:37:53;27.70;94.20
46055;DHT22;31788;6.954;-71.872;2023-03-23T17:40:20;27.70;94.20
46055;DHT22;31788;6.954;-71.872;2023-03-23T17:42:47;27.70;94.00
46055;DHT22;31788;6.954;-71.872;2023-03-23T17:45:14;27.70;94.10
46055;DHT22;31788;6.954;-71.872;2023-03-23T17:47:41;27.70;93.70
46055;DHT22;31788;6.954;-71.872;2023-03-23T17:50:08;27.80;93.80
46055;DHT22;31788;6.954;-71.872;2023-03-23T17:52:35;27.80;93.60
46055;DHT22;31788;6.954;-71.872;2023-03-23T17:55:02;27.80;93.60
46055;DHT22;31788;6.954;-71.872;2023-03-23T17:57:29;27.80;93.20
46055;DHT22;31788;6.954;-71.872;2023-03-23T17:59:55;27.80;93.00
46055;DHT22;31788;6.954;-71.872;2023-03-23T18:02:22;27.80;92.90
46055;DHT22;31788;6.954;-71.872;2023-03-23T18:04:48;27.80;92.60
46055;DHT22;31788;6.954;-71.872;2023-03-23T18:07:15;27.80;92.40
46055;DHT22;31788;6.954;-71.872;2023-03-23T18:09:44;27.80;92.30
46055;DHT22;31788;6.954;-71.872;2023-03-23T18:12:10;27.90;92.50
46055;DHT22;31788;6.954;-71.872;2023-03-23T18:14:37;27.90;92.50
46055;DHT22;31788;6.954;-71.872;2023-03-23T18:17:05;27.90;92.90
46055;DHT22;31788;6.954;-71.872;2023-03-23T18:19:31;27.90;92.30
46055;DHT22;31788;6.954;-71.872;2023-03-23T18:21:58;27.90;92.20
46055;DHT22;31788;6.954;-71.872;2023-03-23T18:24:25;28.00;92.00
46055;DHT22;31788;6.954;-71.872;2023-03-23T18:26:51;28.00;92.00
46055;DHT22;31788;6.954;-71.872;2023-03-23T18:29:18;28.00;92.00
46055;DHT22;31788;6.954;-71.872;2023-03-23T18:31:45;28.00;91.70
46055;DHT22;31788;6.954;-71.872;2023-03-23T18:34:11;28.00;92.10
46055;DHT22;31788;6.954;-71.872;2023-03-23T18:36:38;28.00;91.50
46055;DHT22;31788;6.954;-71.872;2023-03-23T18:39:04;28.00;91.50
46055;DHT22;31788;6.954;-71.872;2023-03-23T18:41:31;28.00;91.40
46055;DHT22;31788;6.954;-71.872;2023-03-23T18:43:58;28.10;91.60
46055;DHT22;31788;6.954;-71.872;2023-03-23T18:46:25;28.10;91.30
46055;DHT22;31788;6.954;-71.872;2023-03-23T18:48:51;28.20;91.40
46055;DHT22;31788;6.954;-71.872;2023-03-23T18:51:18;28.20;91.10
46055;DHT22;31788;6.954;-71.872;2023-03-23T18:53:44;28.10;91.20
46055;DHT22;31788;6.954;-71.872;2023-03-23T18:56:13;28.20;91.00
46055;DHT22;31788;6.954;-71.872;2023-03-23T18:58:41;28.20;91.10
46055;DHT22;31788;6.954;-71.872;2023-03-23T19:01:10;28.30;90.70
46055;DHT22;31788;6.954;-71.872;2023-03-23T19:03:37;28.20;90.60
46055;DHT22;31788;6.954;-71.872;2023-03-23T19:06:27;28.30;90.50
46055;DHT22;31788;6.954;-71.872;2023-03-23T19:08:55;28.40;90.20
46055;DHT22;31788;6.954;-71.872;2023-03-23T19:11:23;28.30;90.30
46055;DHT22;31788;6.954;-71.872;2023-03-23T19:13:53;28.40;90.00
46055;DHT22;31788;6.954;-71.872;2023-03-23T19:16:20;28.40;89.70
46055;DHT22;31788;6.954;-71.872;2023-03-23T19:18:47;28.40;89.10
46055;DHT22;31788;6.954;-71.872;2023-03-23T19:21:13;28.50;89.70
46055;DHT22;31788;6.954;-71.872;2023-03-23T19:23:41;28.60;88.20
46055;DHT22;31788;6.954;-71.872;2023-03-23T19:26:15;28.60;88.40
46055;DHT22;31788;6.954;-71.872;2023-03-23T19:28:45;28.70;87.90
46055;DHT22;31788;6.954;-71.872;2023-03-23T19:31:11;28.70;88.40
46055;DHT22;31788;6.954;-71.872;2023-03-23T19:33:40;28.70;88.20
46055;DHT22;31788;6.954;-71.872;2023-03-23T19:36:07;28.70;88.70
46055;DHT22;31788;6.954;-71.872;2023-03-23T19:38:33;28.70;87.90
46055;DHT22;31788;6.954;-71.872;2023-03-23T19:41:00;28.70;88.10
46055;DHT22;31788;6.954;-71.872;2023-03-23T19:43:27;28.70;88.50
46055;DHT22;31788;6.954;-71.872;2023-03-23T19:45:54;28.70;89.20
46055;DHT22;31788;6.954;-71.872;2023-03-23T19:48:20;28.70;89.40
46055;DHT22;31788;6.954;-71.872;2023-03-23T19:50:49;28.70;89.40
46055;DHT22;31788;6.954;-71.872;2023-03-23T19:53:18;28.60;89.40
46055;DHT22;31788;6.954;-71.872;2023-03-23T19:55:45;28.60;88.80
46055;DHT22;31788;6.954;-71.872;2023-03-23T19:58:12;28.70;89.00
46055;DHT22;31788;6.954;-71.872;2023-03-23T20:00:40;28.60;88.20
46055;DHT22;31788;6.954;-71.872;2023-03-23T20:03:06;28.70;88.60
46055;DHT22;31788;6.954;-71.872;2023-03-23T20:05:34;28.70;88.70
46055;DHT22;31788;6.954;-71.872;2023-03-23T20:08:01;28.70;88.10
46055;DHT22;31788;6.954;-71.872;2023-03-23T20:10:28;28.70;87.80
46055;DHT22;31788;6.954;-71.872;2023-03-23T20:12:55;28.70;88.10
46055;DHT22;31788;6.954;-71.872;2023-03-23T20:15:22;28.70;87.80
46055;DHT22;31788;6.954;-71.872;2023-03-23T20:17:50;28.70;88.10
46055;DHT22;31788;6.954;-71.872;2023-03-23T20:20:17;28.70;88.60
46055;DHT22;31788;6.954;-71.872;2023-03-23T20:22:44;28.70;87.70
46055;DHT22;31788;6.954;-71.872;2023-03-23T20:25:10;28.70;87.90
46055;DHT22;31788;6.954;-71.872;2023-03-23T20:27:37;28.80;87.70
46055;DHT22;31788;6.954;-71.872;2023-03-23T20:30:06;28.70;87.60
46055;DHT22;31788;6.954;-71.872;2023-03-23T20:32:33;28.70;87.80
46055;DHT22;31788;6.954;-71.872;2023-03-23T20:35:04;28.70;88.10
46055;DHT22;31788;6.954;-71.872;2023-03-23T20:37:35;28.70;88.10
46055;DHT22;31788;6.954;-71.872;2023-03-23T20:40:11;28.70;88.10
46055;DHT22;31788;6.954;-71.872;2023-03-23T20:42:38;28.80;88.10
46055;DHT22;31788;6.954;-71.872;2023-03-23T20:45:11;28.80;88.20
46055;DHT22;31788;6.954;-71.872;2023-03-23T20:47:39;28.80;88.30
46055;DHT22;31788;6.954;-71.872;2023-03-23T20:50:07;28.80;88.10
46055;DHT22;31788;6.954;-71.872;2023-03-23T20:52:34;28.80;88.30
46055;DHT22;31788;6.954;-71.872;2023-03-23T20:55:01;28.80;88.50
46055;DHT22;31788;6.954;-71.872;2023-03-23T20:57:28;28.80;88.30
46055;DHT22;31788;6.954;-71.872;2023-03-23T20:59:55;28.80;88.30
46055;DHT22;31788;6.954;-71.872;2023-03-23T21:02:22;28.80;88.00
46055;DHT22;31788;6.954;-71.872;2023-03-23T21:04:51;28.80;88.00
46055;DHT22;31788;6.954;-71.872;2023-03-23T21:07:18;28.80;88.20
46055;DHT22;31788;6.954;-71.872;2023-03-23T21:09:52;28.80;88.30
46055;DHT22;31788;6.954;-71.872;2023-03-23T21:12:19;28.80;88.50
46055;DHT22;31788;6.954;-71.872;2023-03-23T21:14:45;28.80;88.30
46055;DHT22;31788;6.954;-71.872;2023-03-23T21:17:13;28.80;88.30
46055;DHT22;31788;6.954;-71.872;2023-03-23T21:19:40;28.80;88.30
46055;DHT22;31788;6.954;-71.872;2023-03-23T21:22:06;28.80;88.30
46055;DHT22;31788;6.954;-71.872;2023-03-23T21:24:35;28.80;88.40
46055;DHT22;31788;6.954;-71.872;2023-03-23T21:27:04;28.70;88.40
46055;DHT22;31788;6.954;-71.872;2023-03-23T21:29:31;28.80;88.30
46055;DHT22;31788;6.954;-71.872;2023-03-23T21:31:59;28.80;88.30
46055;DHT22;31788;6.954;-71.872;2023-03-23T21:34:26;28.80;88.00
46055;DHT22;31788;6.954;-71.872;2023-03-23T21:36:52;28.80;88.10
46055;DHT22;31788;6.954;-71.872;2023-03-23T21:39:19;28.80;88.00
46055;DHT22;31788;6.954;-71.872;2023-03-23T21:41:47;28.80;88.00
46055;DHT22;31788;6.954;-71.872;2023-03-23T21:44:15;28.80;88.20
46055;DHT22;31788;6.954;-71.872;2023-03-23T21:46:43;28.80;88.40
46055;DHT22;31788;6.954;-71.872;2023-03-23T21:49:10;28.80;88.20
46055;DHT22;31788;6.954;-71.872;2023-03-23T21:51:40;28.80;88.10
46055;DHT22;31788;6.954;-71.872;2023-03-23T21:54:07;28.80;88.00
46055;DHT22;31788;6.954;-71.872;2023-03-23T21:56:34;28.70;88.00
46055;DHT22;31788;6.954;-71.872;2023-03-23T21:59:01;28.80;87.70
46055;DHT22;31788;6.954;-71.872;2023-03-23T22:01:29;28.70;87.80
46055;DHT22;31788;6.954;-71.872;2023-03-23T22:03:56;28.70;88.20
46055;DHT22;31788;6.954;-71.872;2023-03-23T22:06:24;28.70;88.20
46055;DHT22;31788;6.954;-71.872;2023-03-23T22:08:54;28.80;88.40
46055;DHT22;31788;6.954;-71.872;2023-03-23T22:11:24;28.70;88.30
46055;DHT22;31788;6.954;-71.872;2023-03-23T22:13:53;28.70;88.40
46055;DHT22;31788;6.954;-71.872;2023-03-23T22:16:20;28.70;88.40
46055;DHT22;31788;6.954;-71.872;2023-03-23T22:18:48;28.70;88.50
46055;DHT22;31788;6.954;-71.872;2023-03-23T22:21:17;28.70;88.50
46055;DHT22;31788;6.954;-71.872;2023-03-23T22:23:45;28.70;88.50
46055;DHT22;31788;6.954;-71.872;2023-03-23T22:26:12;28.70;88.60
46055;DHT22;31788;6.954;-71.872;2023-03-23T22:28:40;28.70;88.70
46055;DHT22;31788;6.954;-71.872;2023-03-23T22:31:13;28.70;89.50
46055;DHT22;31788;6.954;-71.872;2023-03-23T22:33:45;28.70;89.50
46055;DHT22;31788;6.954;-71.872;2023-03-23T22:36:12;28.70;89.60
46055;DHT22;31788;6.954;-71.872;2023-03-23T22:38:41;28.70;89.60
46055;DHT22;31788;6.954;-71.872;2023-03-23T22:41:11;28.70;89.80
46055;DHT22;31788;6.954;-71.872;2023-03-23T22:43:39;28.60;90.00
46055;DHT22;31788;6.954;-71.872;2023-03-23T22:46:06;28.70;90.40
46055;DHT22;31788;6.954;-71.872;2023-03-23T22:48:33;28.70;90.60
46055;DHT22;31788;6.954;-71.872;2023-03-23T22:50:59;28.60;90.90
46055;DHT22;31788;6.954;-71.872;2023-03-23T22:53:26;28.70;90.70
46055;DHT22;31788;6.954;-71.872;2023-03-23T22:55:55;28.60;90.50
46055;DHT22;31788;6.954;-71.872;2023-03-23T22:58:24;28.60;90.40
46055;DHT22;31788;6.954;-71.872;2023-03-23T23:00:56;28.60;90.50
46055;DHT22;31788;6.954;-71.872;2023-03-23T23:03:24;28.70;90.50
46055;DHT22;31788;6.954;-71.872;2023-03-23T23:05:53;28.60;90.50
46055;DHT22;31788;6.954;-71.872;2023-03-23T23:08:20;28.60;91.00
46055;DHT22;31788;6.954;-71.872;2023-03-23T23:10:49;28.60;90.90
46055;DHT22;31788;6.954;-71.872;2023-03-23T23:13:17;28.60;90.80
46055;DHT22;31788;6.954;-71.872;2023-03-23T23:15:47;28.60;90.90
46055;DHT22;31788;6.954;-71.872;2023-03-23T23:18:14;28.60;91.10
46055;DHT22;31788;6.954;-71.872;2023-03-23T23:20:42;28.50;90.90
46055;DHT22;31788;6.954;-71.872;2023-03-23T23:23:09;28.60;90.80
46055;DHT22;31788;6.954;-71.872;2023-03-23T23:25:38;28.60;90.80
46055;DHT22;31788;6.954;-71.872;2023-03-23T23:28:05;28.60;90.80
46055;DHT22;31788;6.954;-71.872;2023-03-23T23:30:33;28.50;90.80
46055;DHT22;31788;6.954;-71.872;2023-03-23T23:33:01;28.50;90.80
46055;DHT22;31788;6.954;-71.872;2023-03-23T23:35:28;28.50;90.80
46055;DHT22;31788;6.954;-71.872;2023-03-23T23:37:55;28.50;90.90
46055;DHT22;31788;6.954;-71.872;2023-03-23T23:40:21;28.50;90.90
46055;DHT22;31788;6.954;-71.872;2023-03-23T23:42:50;28.50;90.90
46055;DHT22;31788;6.954;-71.872;2023-03-23T23:45:18;28.50;90.90
46055;DHT22;31788;6.954;-71.872;2023-03-23T23:47:46;28.50;90.90
46055;DHT22;31788;6.954;-71.872;2023-03-23T23:50:13;28.50;91.00
46055;DHT22;31788;6.954;-71.872;2023-03-23T23:52:41;28.50;91.00
46055;DHT22;31788;6.954;-71.872;2023-03-23T23:55:12;28.50;90.80
46055;DHT22;31788;6.954;-71.872;2023-03-23T23:57:42;28.50;90.80
